sensor_id;sensor_type;location;lat;lon;timestamp;pressure;altitude;pressure_sealevel;temperature;humidity
41254;BME280;26987;59.928;30.306;2023-06-14T00:00:22;101815.97;;;13.80;62.12
41254;BME280;26987;59.928;30.306;2023-06-14T00:02:50;101823.41;;;13.71;62.28
41254;BME280;26987;59.928;30.306;2023-06-14T00:05:17;101820.06;;;13.69;62.43
41254;BME280;26987;59.928;30.306;2023-06-14T00:07:45;101824.63;;;13.69;63.05
41254;BME280;26987;59.928;30.306;2023-06-14T00:10:14;101825.44;;;13.62;62.59
41254;BME280;26987;59.928;30.306;2023-06-14T00:12:42;101821.28;;;13.60;62.67
41254;BME280;26987;59.928;30.306;2023-06-14T00:15:10;101819.59;;;13.59;62.32
41254;BME280;26987;59.928;30.306;2023-06-14T00:17:39;101820.00;;;13.56;61.93
41254;BME280;26987;59.928;30.306;2023-06-14T00:20:08;101825.19;;;13.57;61.32
41254;BME280;26987;59.928;30.306;2023-06-14T00:22:36;101819.38;;;13.54;62.09
41254;BME280;26987;59.928;30.306;2023-06-14T00:25:06;101830.16;;;13.54;61.72
41254;BME280;26987;59.928;30.306;2023-06-14T00:27:33;101823.53;;;13.56;61.38
41254;BME280;26987;59.928;30.306;2023-06-14T00:30:01;101827.88;;;13.51;61.14
41254;BME280;26987;59.928;30.306;2023-06-14T00:32:29;101828.28;;;13.54;60.91
41254;BME280;26987;59.928;30.306;2023-06-14T00:34:59;101820.41;;;13.53;60.67
41254;BME280;26987;59.928;30.306;2023-06-14T00:37:26;101831.63;;;13.63;60.43
41254;BME280;26987;59.928;30.306;2023-06-14T00:39:54;101828.31;;;13.61;60.57
41254;BME280;26987;59.928;30.306;2023-06-14T00:42:25;101833.31;;;13.64;60.41
41254;BME280;26987;59.928;30.306;2023-06-14T00:44:53;101825.00;;;13.59;60.12
41254;BME280;26987;59.928;30.306;2023-06-14T00:47:21;101822.28;;;13.59;60.59
41254;BME280;26987;59.928;30.306;2023-06-14T00:49:50;101832.06;;;13.67;60.29
41254;BME280;26987;59.928;30.306;2023-06-14T00:52:20;101824.63;;;13.69;60.40
41254;BME280;26987;59.928;30.306;2023-06-14T00:54:48;101833.34;;;13.71;60.35
41254;BME280;26987;59.928;30.306;2023-06-14T00:57:16;101820.91;;;13.70;60.29
41254;BME280;26987;59.928;30.306;2023-06-14T00:59:45;101828.19;;;13.76;60.16
41254;BME280;26987;59.928;30.306;2023-06-14T01:02:14;101821.34;;;13.73;59.80
41254;BME280;26987;59.928;30.306;2023-06-14T01:04:44;101820.09;;;13.76;59.68
41254;BME280;26987;59.928;30.306;2023-06-14T01:07:23;101822.59;;;13.78;60.15
41254;BME280;26987;59.928;30.306;2023-06-14T01:10:04;101801.44;;;13.74;59.36
41254;BME280;26987;59.928;30.306;2023-06-14T01:12:43;101811.00;;;13.84;59.65
41254;BME280;26987;59.928;30.306;2023-06-14T01:15:13;101794.16;;;13.68;59.72
41254;BME280;26987;59.928;30.306;2023-06-14T01:17:41;101778.16;;;13.60;59.77
41254;BME280;26987;59.928;30.306;2023-06-14T01:20:15;101821.38;;;13.87;60.03
41254;BME280;26987;59.928;30.306;2023-06-14T01:22:50;101816.84;;;13.94;59.84
41254;BME280;26987;59.928;30.306;2023-06-14T01:25:19;101818.06;;;13.92;60.02
41254;BME280;26987;59.928;30.306;2023-06-14T01:27:52;101828.88;;;13.98;59.89
41254;BME280;26987;59.928;30.306;2023-06-14T01:30:22;101822.88;;;14.03;59.53
41254;BME280;26987;59.928;30.306;2023-06-14T01:32:52;101834.06;;;14.07;59.44
41254;BME280;26987;59.928;30.306;2023-06-14T01:35:20;101824.34;;;14.12;58.79
41254;BME280;26987;59.928;30.306;2023-06-14T01:37:51;101826.84;;;14.21;58.49
41254;BME280;26987;59.928;30.306;2023-06-14T01:40:21;101826.88;;;14.28;58.16
41254;BME280;26987;59.928;30.306;2023-06-14T01:42:50;101829.34;;;14.36;58.04
41254;BME280;26987;59.928;30.306;2023-06-14T01:45:19;101834.97;;;14.41;57.65
41254;BME280;26987;59.928;30.306;2023-06-14T01:47:48;101806.53;;;14.32;57.23
41254;BME280;26987;59.928;30.306;2023-06-14T01:50:16;101834.59;;;14.58;57.26
41254;BME280;26987;59.928;30.306;2023-06-14T01:52:46;101802.38;;;14.49;56.26
41254;BME280;26987;59.928;30.306;2023-06-14T01:55:15;101829.19;;;14.78;55.77
41254;BME280;26987;59.928;30.306;2023-06-14T01:57:44;101838.72;;;14.94;55.17
41254;BME280;26987;59.928;30.306;2023-06-14T02:00:13;101804.88;;;14.98;53.97
41254;BME280;26987;59.928;30.306;2023-06-14T02:02:42;101839.66;;;15.47;53.06
41254;BME280;26987;59.928;30.306;2023-06-14T02:05:10;101829.59;;;15.68;52.18
41254;BME280;26987;59.928;30.306;2023-06-14T02:07:39;101826.63;;;15.83;51.40
41254;BME280;26987;59.928;30.306;2023-06-14T02:10:07;101832.84;;;15.97;51.04
41254;BME280;26987;59.928;30.306;2023-06-14T02:12:36;101831.81;;;16.24;50.06
41254;BME280;26987;59.928;30.306;2023-06-14T02:15:06;101826.22;;;16.76;48.49
41254;BME280;26987;59.928;30.306;2023-06-14T02:17:34;101830.09;;;17.32;46.66
41254;BME280;26987;59.928;30.306;2023-06-14T02:20:07;101823.09;;;17.92;45.22
41254;BME280;26987;59.928;30.306;2023-06-14T02:22:35;101826.06;;;18.45;43.25
41254;BME280;26987;59.928;30.306;2023-06-14T02:25:06;101827.41;;;19.02;41.82
41254;BME280;26987;59.928;30.306;2023-06-14T02:27:36;101823.25;;;19.36;40.92
41254;BME280;26987;59.928;30.306;2023-06-14T02:30:05;101827.84;;;19.76;39.79
41254;BME280;26987;59.928;30.306;2023-06-14T02:32:33;101830.59;;;20.06;38.81
41254;BME280;26987;59.928;30.306;2023-06-14T02:35:02;101790.53;;;19.89;38.39
41254;BME280;26987;59.928;30.306;2023-06-14T02:37:31;101833.66;;;20.26;37.89
41254;BME280;26987;59.928;30.306;2023-06-14T02:39:59;101832.09;;;20.31;37.76
41254;BME280;26987;59.928;30.306;2023-06-14T02:42:27;101832.44;;;20.34;37.70
41254;BME280;26987;59.928;30.306;2023-06-14T02:44:56;101837.22;;;20.44;37.66
41254;BME280;26987;59.928;30.306;2023-06-14T02:47:24;101826.81;;;20.24;37.95
41254;BME280;26987;59.928;30.306;2023-06-14T02:49:52;101833.84;;;20.54;38.14
41254;BME280;26987;59.928;30.306;2023-06-14T02:52:20;101838.22;;;20.72;37.62
41254;BME280;26987;59.928;30.306;2023-06-14T02:54:48;101829.00;;;20.90;37.21
41254;BME280;26987;59.928;30.306;2023-06-14T02:57:16;101839.22;;;21.23;36.72
41254;BME280;26987;59.928;30.306;2023-06-14T02:59:44;101817.41;;;21.45;36.02
41254;BME280;26987;59.928;30.306;2023-06-14T03:02:13;101841.38;;;21.88;35.45
41254;BME280;26987;59.928;30.306;2023-06-14T03:04:43;101843.44;;;22.03;35.15
41254;BME280;26987;59.928;30.306;2023-06-14T03:07:16;101847.91;;;22.47;34.51
41254;BME280;26987;59.928;30.306;2023-06-14T03:09:48;101844.94;;;22.87;34.03
41254;BME280;26987;59.928;30.306;2023-06-14T03:12:17;101845.09;;;23.18;33.48
41254;BME280;26987;59.928;30.306;2023-06-14T03:14:45;101855.72;;;23.63;32.18
41254;BME280;26987;59.928;30.306;2023-06-14T03:17:16;101855.25;;;23.87;31.84
41254;BME280;26987;59.928;30.306;2023-06-14T03:19:46;101856.91;;;24.09;31.48
41254;BME280;26987;59.928;30.306;2023-06-14T03:22:15;101859.41;;;24.21;31.19
41254;BME280;26987;59.928;30.306;2023-06-14T03:24:44;101862.41;;;24.71;30.63
41254;BME280;26987;59.928;30.306;2023-06-14T03:27:14;101854.44;;;24.75;30.70
41254;BME280;26987;59.928;30.306;2023-06-14T03:29:45;101862.38;;;24.87;30.44
41254;BME280;26987;59.928;30.306;2023-06-14T03:32:13;101862.09;;;24.99;30.74
41254;BME280;26987;59.928;30.306;2023-06-14T03:34:44;101868.88;;;25.27;30.21
41254;BME280;26987;59.928;30.306;2023-06-14T03:37:20;101864.50;;;25.31;30.03
41254;BME280;26987;59.928;30.306;2023-06-14T03:39:48;101863.94;;;25.35;30.55
41254;BME280;26987;59.928;30.306;2023-06-14T03:42:20;101857.44;;;25.76;29.75
41254;BME280;26987;59.928;30.306;2023-06-14T03:44:49;101860.66;;;25.83;29.40
41254;BME280;26987;59.928;30.306;2023-06-14T03:47:19;101849.94;;;25.87;29.59
41254;BME280;26987;59.928;30.306;2023-06-14T03:49:49;101861.97;;;25.96;29.62
41254;BME280;26987;59.928;30.306;2023-06-14T03:52:17;101862.47;;;26.03;29.75
41254;BME280;26987;59.928;30.306;2023-06-14T03:54:46;101867.03;;;26.18;29.10
41254;BME280;26987;59.928;30.306;2023-06-14T03:57:14;101858.44;;;26.36;28.52
41254;BME280;26987;59.928;30.306;2023-06-14T03:59:43;101855.00;;;26.49;28.94
41254;BME280;26987;59.928;30.306;2023-06-14T04:02:12;101860.59;;;26.98;28.12
41254;BME280;26987;59.928;30.306;2023-06-14T04:04:43;101858.25;;;27.54;27.52
41254;BME280;26987;59.928;30.306;2023-06-14T04:07:13;101870.03;;;27.99;27.09
41254;BME280;26987;59.928;30.306;2023-06-14T04:09:42;101843.84;;;28.01;26.66
41254;BME280;26987;59.928;30.306;2023-06-14T04:12:10;101870.88;;;28.52;26.06
41254;BME280;26987;59.928;30.306;2023-06-14T04:14:39;101869.88;;;28.28;25.70
41254;BME280;26987;59.928;30.306;2023-06-14T04:17:09;101881.94;;;28.66;25.35
41254;BME280;26987;59.928;30.306;2023-06-14T04:19:38;101885.16;;;29.15;24.61
41254;BME280;26987;59.928;30.306;2023-06-14T04:22:06;101865.53;;;29.17;24.51
41254;BME280;26987;59.928;30.306;2023-06-14T04:24:38;101873.78;;;29.45;24.62
41254;BME280;26987;59.928;30.306;2023-06-14T04:27:06;101873.69;;;29.36;24.87
41254;BME280;26987;59.928;30.306;2023-06-14T04:29:35;101885.06;;;29.86;23.96
41254;BME280;26987;59.928;30.306;2023-06-14T04:32:08;101873.91;;;30.14;23.33
41254;BME280;26987;59.928;30.306;2023-06-14T04:34:38;101867.88;;;29.89;23.66
41254;BME280;26987;59.928;30.306;2023-06-14T04:37:07;101868.03;;;30.29;23.37
41254;BME280;26987;59.928;30.306;2023-06-14T04:39:40;101870.88;;;30.01;23.54
41254;BME280;26987;59.928;30.306;2023-06-14T04:42:09;101871.63;;;29.93;23.09
41254;BME280;26987;59.928;30.306;2023-06-14T04:44:38;101867.03;;;30.25;23.50
41254;BME280;26987;59.928;30.306;2023-06-14T04:47:06;101859.91;;;30.33;23.10
41254;BME280;26987;59.928;30.306;2023-06-14T04:49:35;101860.72;;;30.33;22.96
41254;BME280;26987;59.928;30.306;2023-06-14T04:52:05;101857.34;;;30.14;22.78
41254;BME280;26987;59.928;30.306;2023-06-14T04:54:41;101860.72;;;30.65;22.67
41254;BME280;26987;59.928;30.306;2023-06-14T04:57:10;101861.50;;;30.25;22.86
41254;BME280;26987;59.928;30.306;2023-06-14T04:59:41;101853.81;;;30.45;22.82
41254;BME280;26987;59.928;30.306;2023-06-14T05:02:10;101863.56;;;30.42;22.60
41254;BME280;26987;59.928;30.306;2023-06-14T05:04:39;101861.19;;;30.58;22.73
41254;BME280;26987;59.928;30.306;2023-06-14T05:07:07;101801.53;;;30.34;23.26
41254;BME280;26987;59.928;30.306;2023-06-14T05:09:35;101860.16;;;30.77;23.09
41254;BME280;26987;59.928;30.306;2023-06-14T05:12:06;101861.91;;;30.73;23.03
41254;BME280;26987;59.928;30.306;2023-06-14T05:14:35;101861.88;;;31.05;23.01
41254;BME280;26987;59.928;30.306;2023-06-14T05:17:05;101857.63;;;30.99;23.12
41254;BME280;26987;59.928;30.306;2023-06-14T05:19:33;101872.28;;;30.99;23.28
41254;BME280;26987;59.928;30.306;2023-06-14T05:22:01;101856.53;;;30.68;23.17
41254;BME280;26987;59.928;30.306;2023-06-14T05:24:30;101859.28;;;30.68;23.87
41254;BME280;26987;59.928;30.306;2023-06-14T05:26:58;101861.47;;;30.48;23.98
41254;BME280;26987;59.928;30.306;2023-06-14T05:29:27;101867.75;;;30.40;24.25
41254;BME280;26987;59.928;30.306;2023-06-14T05:31:55;101859.44;;;30.71;23.81
41254;BME280;26987;59.928;30.306;2023-06-14T05:34:23;101860.56;;;30.93;23.70
41254;BME280;26987;59.928;30.306;2023-06-14T05:36:51;101858.38;;;31.31;23.27
41254;BME280;26987;59.928;30.306;2023-06-14T05:39:19;101856.16;;;31.51;22.65
41254;BME280;26987;59.928;30.306;2023-06-14T05:41:46;101867.63;;;31.17;23.45
41254;BME280;26987;59.928;30.306;2023-06-14T05:44:14;101861.56;;;31.06;23.32
41254;BME280;26987;59.928;30.306;2023-06-14T05:46:43;101864.91;;;31.35;22.95
41254;BME280;26987;59.928;30.306;2023-06-14T05:49:11;101870.63;;;31.39;22.79
41254;BME280;26987;59.928;30.306;2023-06-14T05:51:39;101866.34;;;31.32;22.80
41254;BME280;26987;59.928;30.306;2023-06-14T05:54:07;101861.88;;;31.05;23.51
41254;BME280;26987;59.928;30.306;2023-06-14T05:56:35;101868.28;;;31.23;22.97
41254;BME280;26987;59.928;30.306;2023-06-14T05:59:02;101872.97;;;30.73;23.52
41254;BME280;26987;59.928;30.306;2023-06-14T06:01:30;101871.09;;;30.82;23.39
41254;BME280;26987;59.928;30.306;2023-06-14T06:04:01;101867.22;;;31.01;23.92
41254;BME280;26987;59.928;30.306;2023-06-14T06:06:30;101878.53;;;31.22;23.10
41254;BME280;26987;59.928;30.306;2023-06-14T06:08:58;101873.88;;;31.50;23.71
41254;BME280;26987;59.928;30.306;2023-06-14T06:11:32;101879.28;;;31.64;23.62
41254;BME280;26987;59.928;30.306;2023-06-14T06:14:02;101860.69;;;31.46;23.26
41254;BME280;26987;59.928;30.306;2023-06-14T06:16:31;101861.94;;;31.31;23.04
41254;BME280;26987;59.928;30.306;2023-06-14T06:19:01;101873.63;;;31.19;23.47
41254;BME280;26987;59.928;30.306;2023-06-14T06:21:28;101856.03;;;31.15;23.35
41254;BME280;26987;59.928;30.306;2023-06-14T06:23:56;101862.84;;;31.00;22.85
41254;BME280;26987;59.928;30.306;2023-06-14T06:26:24;101868.34;;;30.59;23.71
41254;BME280;26987;59.928;30.306;2023-06-14T06:28:53;101875.00;;;30.81;23.30
41254;BME280;26987;59.928;30.306;2023-06-14T06:31:22;101877.19;;;31.02;23.29
41254;BME280;26987;59.928;30.306;2023-06-14T06:33:50;101871.94;;;30.92;23.13
41254;BME280;26987;59.928;30.306;2023-06-14T06:36:20;101877.41;;;31.24;22.57
41254;BME280;26987;59.928;30.306;2023-06-14T06:38:52;101856.88;;;31.16;22.35
41254;BME280;26987;59.928;30.306;2023-06-14T06:41:26;101873.88;;;31.41;21.97
41254;BME280;26987;59.928;30.306;2023-06-14T06:43:54;101853.72;;;31.49;21.90
41254;BME280;26987;59.928;30.306;2023-06-14T06:46:28;101878.56;;;31.31;22.28
41254;BME280;26987;59.928;30.306;2023-06-14T06:48:56;101876.47;;;30.88;22.44
41254;BME280;26987;59.928;30.306;2023-06-14T06:51:25;101870.28;;;30.59;22.16
41254;BME280;26987;59.928;30.306;2023-06-14T06:53:54;101856.16;;;30.29;22.74
41254;BME280;26987;59.928;30.306;2023-06-14T06:56:29;101869.25;;;29.77;22.45
41254;BME280;26987;59.928;30.306;2023-06-14T06:59:05;101878.19;;;29.46;23.43
41254;BME280;26987;59.928;30.306;2023-06-14T07:01:43;101872.19;;;29.02;24.60
41254;BME280;26987;59.928;30.306;2023-06-14T07:04:19;101861.00;;;28.93;24.44
41254;BME280;26987;59.928;30.306;2023-06-14T07:06:59;101881.06;;;28.99;24.39
41254;BME280;26987;59.928;30.306;2023-06-14T07:09:27;101873.44;;;28.48;24.74
41254;BME280;26987;59.928;30.306;2023-06-14T07:11:58;101870.88;;;27.99;25.29
41254;BME280;26987;59.928;30.306;2023-06-14T07:14:26;101873.53;;;27.66;25.98
41254;BME280;26987;59.928;30.306;2023-06-14T07:17:04;101874.78;;;27.54;26.44
41254;BME280;26987;59.928;30.306;2023-06-14T07:19:36;101868.97;;;27.12;26.82
41254;BME280;26987;59.928;30.306;2023-06-14T07:22:14;101879.69;;;26.84;27.26
41254;BME280;26987;59.928;30.306;2023-06-14T07:24:53;101877.94;;;26.93;27.30
41254;BME280;26987;59.928;30.306;2023-06-14T07:27:22;101869.50;;;26.85;27.21
41254;BME280;26987;59.928;30.306;2023-06-14T07:29:53;101860.81;;;26.72;27.55
41254;BME280;26987;59.928;30.306;2023-06-14T07:32:22;101868.50;;;26.75;27.59
41254;BME280;26987;59.928;30.306;2023-06-14T07:34:50;101866.28;;;26.48;27.84
41254;BME280;26987;59.928;30.306;2023-06-14T07:37:19;101870.03;;;26.57;28.38
41254;BME280;26987;59.928;30.306;2023-06-14T07:39:47;101866.47;;;26.56;27.92
41254;BME280;26987;59.928;30.306;2023-06-14T07:42:15;101870.91;;;26.52;28.03
41254;BME280;26987;59.928;30.306;2023-06-14T07:44:42;101842.50;;;26.27;28.59
41254;BME280;26987;59.928;30.306;2023-06-14T07:47:11;101862.25;;;26.35;28.55
41254;BME280;26987;59.928;30.306;2023-06-14T07:49:39;101864.56;;;26.22;28.47
41254;BME280;26987;59.928;30.306;2023-06-14T07:52:07;101860.22;;;26.11;28.47
41254;BME280;26987;59.928;30.306;2023-06-14T07:54:37;101857.06;;;25.93;29.20
41254;BME280;26987;59.928;30.306;2023-06-14T07:57:07;101869.25;;;25.76;28.83
41254;BME280;26987;59.928;30.306;2023-06-14T07:59:35;101871.63;;;25.32;29.15
41254;BME280;26987;59.928;30.306;2023-06-14T08:02:03;101871.13;;;25.15;29.54
41254;BME280;26987;59.928;30.306;2023-06-14T08:04:31;101871.97;;;25.05;29.37
41254;BME280;26987;59.928;30.306;2023-06-14T08:06:59;101871.38;;;25.18;30.12
41254;BME280;26987;59.928;30.306;2023-06-14T08:09:28;101878.22;;;25.26;29.74
41254;BME280;26987;59.928;30.306;2023-06-14T08:11:57;101843.16;;;25.18;29.03
41254;BME280;26987;59.928;30.306;2023-06-14T08:14:25;101872.88;;;25.56;28.90
41254;BME280;26987;59.928;30.306;2023-06-14T08:16:53;101871.84;;;25.47;29.65
41254;BME280;26987;59.928;30.306;2023-06-14T08:19:21;101884.19;;;25.44;28.96
41254;BME280;26987;59.928;30.306;2023-06-14T08:21:49;101879.78;;;25.48;29.47
41254;BME280;26987;59.928;30.306;2023-06-14T08:24:17;101883.53;;;25.68;29.17
41254;BME280;26987;59.928;30.306;2023-06-14T08:26:45;101882.69;;;25.78;29.49
41254;BME280;26987;59.928;30.306;2023-06-14T08:29:14;101878.31;;;25.72;29.09
41254;BME280;26987;59.928;30.306;2023-06-14T08:31:42;101885.16;;;25.79;28.88
41254;BME280;26987;59.928;30.306;2023-06-14T08:34:10;101869.50;;;25.80;29.25
41254;BME280;26987;59.928;30.306;2023-06-14T08:36:37;101871.84;;;25.97;28.81
41254;BME280;26987;59.928;30.306;2023-06-14T08:39:06;101879.63;;;25.85;29.18
41254;BME280;26987;59.928;30.306;2023-06-14T08:41:36;101870.84;;;25.82;29.72
41254;BME280;26987;59.928;30.306;2023-06-14T08:44:08;101877.63;;;25.95;29.45
41254;BME280;26987;59.928;30.306;2023-06-14T08:46:37;101875.16;;;25.99;30.16
41254;BME280;26987;59.928;30.306;2023-06-14T08:49:06;101879.69;;;25.74;30.49
41254;BME280;26987;59.928;30.306;2023-06-14T08:51:41;101865.75;;;25.55;30.36
41254;BME280;26987;59.928;30.306;2023-06-14T08:54:11;101879.72;;;25.69;30.08
41254;BME280;26987;59.928;30.306;2023-06-14T08:56:48;101864.41;;;25.52;30.30
41254;BME280;26987;59.928;30.306;2023-06-14T08:59:18;101875.06;;;25.64;30.59
41254;BME280;26987;59.928;30.306;2023-06-14T09:01:51;101887.44;;;25.56;29.86
41254;BME280;26987;59.928;30.306;2023-06-14T09:04:24;101883.28;;;25.69;30.26
41254;BME280;26987;59.928;30.306;2023-06-14T09:06:59;101876.66;;;25.76;30.04
41254;BME280;26987;59.928;30.306;2023-06-14T09:09:27;101872.50;;;25.84;29.59
41254;BME280;26987;59.928;30.306;2023-06-14T09:11:58;101873.53;;;25.93;29.21
41254;BME280;26987;59.928;30.306;2023-06-14T09:14:30;101863.72;;;25.81;29.35
41254;BME280;26987;59.928;30.306;2023-06-14T09:17:08;101877.47;;;25.81;30.20
41254;BME280;26987;59.928;30.306;2023-06-14T09:19:36;101873.94;;;25.71;30.02
41254;BME280;26987;59.928;30.306;2023-06-14T09:22:05;101871.97;;;25.81;30.72
41254;BME280;26987;59.928;30.306;2023-06-14T09:24:35;101865.47;;;25.62;30.58
41254;BME280;26987;59.928;30.306;2023-06-14T09:27:05;101850.38;;;25.54;31.38
41254;BME280;26987;59.928;30.306;2023-06-14T09:29:38;101869.88;;;25.63;31.68
41254;BME280;26987;59.928;30.306;2023-06-14T09:32:25;101870.16;;;25.61;30.68
41254;BME280;26987;59.928;30.306;2023-06-14T09:35:09;101866.84;;;25.64;30.25
41254;BME280;26987;59.928;30.306;2023-06-14T09:37:41;101872.09;;;25.50;30.88
41254;BME280;26987;59.928;30.306;2023-06-14T09:40:09;101862.00;;;25.35;30.90
41254;BME280;26987;59.928;30.306;2023-06-14T09:42:40;101875.47;;;25.31;30.17
41254;BME280;26987;59.928;30.306;2023-06-14T09:45:12;101865.88;;;25.18;29.94
41254;BME280;26987;59.928;30.306;2023-06-14T09:47:54;101868.09;;;25.16;30.40
41254;BME280;26987;59.928;30.306;2023-06-14T09:50:23;101863.97;;;25.14;31.01
41254;BME280;26987;59.928;30.306;2023-06-14T09:52:52;101871.13;;;25.15;31.59
41254;BME280;26987;59.928;30.306;2023-06-14T09:55:31;101853.31;;;25.07;31.58
41254;BME280;26987;59.928;30.306;2023-06-14T09:58:10;101864.78;;;25.30;31.84
41254;BME280;26987;59.928;30.306;2023-06-14T10:00:50;101847.00;;;25.12;32.16
41254;BME280;26987;59.928;30.306;2023-06-14T10:03:27;101866.72;;;25.19;32.44
41254;BME280;26987;59.928;30.306;2023-06-14T10:05:58;101860.16;;;25.10;31.34
41254;BME280;26987;59.928;30.306;2023-06-14T10:08:30;101867.00;;;25.12;31.63
41254;BME280;26987;59.928;30.306;2023-06-14T10:11:07;101862.09;;;25.09;30.95
41254;BME280;26987;59.928;30.306;2023-06-14T10:13:44;101857.41;;;25.10;29.68
41254;BME280;26987;59.928;30.306;2023-06-14T10:16:17;101856.91;;;25.08;29.48
41254;BME280;26987;59.928;30.306;2023-06-14T10:18:53;101853.63;;;24.95;29.36
41254;BME280;26987;59.928;30.306;2023-06-14T10:24:13;101858.59;;;24.77;29.14
41254;BME280;26987;59.928;30.306;2023-06-14T10:26:54;101827.06;;;24.64;28.78
41254;BME280;26987;59.928;30.306;2023-06-14T10:29:25;101843.22;;;24.71;28.97
41254;BME280;26987;59.928;30.306;2023-06-14T10:32:11;101834.75;;;24.57;28.71
41254;BME280;26987;59.928;30.306;2023-06-14T10:34:51;101850.38;;;24.67;28.57
41254;BME280;26987;59.928;30.306;2023-06-14T10:37:22;101830.91;;;24.48;28.85
41254;BME280;26987;59.928;30.306;2023-06-14T10:39:56;101845.16;;;24.60;29.41
41254;BME280;26987;59.928;30.306;2023-06-14T10:42:31;101820.78;;;24.48;29.89
41254;BME280;26987;59.928;30.306;2023-06-14T10:45:00;101844.06;;;24.56;29.60
41254;BME280;26987;59.928;30.306;2023-06-14T10:47:31;101850.34;;;24.56;29.54
41254;BME280;26987;59.928;30.306;2023-06-14T10:50:07;101846.00;;;24.50;29.38
41254;BME280;26987;59.928;30.306;2023-06-14T10:52:38;101841.06;;;24.31;29.94
41254;BME280;26987;59.928;30.306;2023-06-14T10:55:09;101841.63;;;24.34;30.06
41254;BME280;26987;59.928;30.306;2023-06-14T10:57:38;101850.38;;;24.30;30.14
41254;BME280;26987;59.928;30.306;2023-06-14T11:00:07;101838.88;;;24.23;29.90
41254;BME280;26987;59.928;30.306;2023-06-14T11:03:23;101844.91;;;24.41;29.72
41254;BME280;26987;59.928;30.306;2023-06-14T11:06:00;101846.00;;;24.24;30.04
41254;BME280;26987;59.928;30.306;2023-06-14T11:08:40;101821.34;;;24.24;29.60
41254;BME280;26987;59.928;30.306;2023-06-14T11:11:22;101833.13;;;24.25;29.45
41254;BME280;26987;59.928;30.306;2023-06-14T11:13:51;101839.13;;;24.27;29.69
41254;BME280;26987;59.928;30.306;2023-06-14T11:16:19;101833.41;;;24.23;29.65
41254;BME280;26987;59.928;30.306;2023-06-14T11:18:47;101833.94;;;24.25;29.33
41254;BME280;26987;59.928;30.306;2023-06-14T11:21:17;101837.22;;;24.27;29.25
41254;BME280;26987;59.928;30.306;2023-06-14T11:23:49;101834.47;;;24.22;29.15
41254;BME280;26987;59.928;30.306;2023-06-14T11:26:25;101832.84;;;24.26;29.51
41254;BME280;26987;59.928;30.306;2023-06-14T11:28:57;101830.13;;;24.26;28.87
41254;BME280;26987;59.928;30.306;2023-06-14T11:31:25;101807.63;;;24.19;28.80
41254;BME280;26987;59.928;30.306;2023-06-14T11:33:54;101822.44;;;24.18;28.80
41254;BME280;26987;59.928;30.306;2023-06-14T11:36:26;101823.00;;;24.20;28.27
41254;BME280;26987;59.928;30.306;2023-06-14T11:38:58;101824.59;;;24.16;28.23
41254;BME280;26987;59.928;30.306;2023-06-14T11:41:32;101818.03;;;24.22;28.02
41254;BME280;26987;59.928;30.306;2023-06-14T11:44:01;101814.75;;;24.15;27.91
41254;BME280;26987;59.928;30.306;2023-06-14T11:46:29;101806.50;;;24.04;27.69
41254;BME280;26987;59.928;30.306;2023-06-14T11:48:57;101811.69;;;24.01;28.86
41254;BME280;26987;59.928;30.306;2023-06-14T11:51:26;101815.00;;;24.03;28.48
41254;BME280;26987;59.928;30.306;2023-06-14T11:53:54;101813.38;;;24.12;29.03
41254;BME280;26987;59.928;30.306;2023-06-14T11:56:23;101812.53;;;24.12;28.70
41254;BME280;26987;59.928;30.306;2023-06-14T11:58:52;101807.88;;;24.12;29.03
41254;BME280;26987;59.928;30.306;2023-06-14T12:01:22;101814.75;;;24.15;29.22
41254;BME280;26987;59.928;30.306;2023-06-14T12:03:51;101807.63;;;24.19;28.85
41254;BME280;26987;59.928;30.306;2023-06-14T12:06:27;101803.25;;;24.13;28.47
41254;BME280;26987;59.928;30.306;2023-06-14T12:09:06;101768.16;;;23.84;29.20
41254;BME280;26987;59.928;30.306;2023-06-14T12:11:39;101784.31;;;23.96;28.90
41254;BME280;26987;59.928;30.306;2023-06-14T12:14:08;101746.78;;;23.60;29.53
41254;BME280;26987;59.928;30.306;2023-06-14T12:16:38;101805.41;;;23.90;29.47
41254;BME280;26987;59.928;30.306;2023-06-14T12:19:12;101736.91;;;23.48;29.39
41254;BME280;26987;59.928;30.306;2023-06-14T12:21:43;101800.19;;;23.83;29.91
41254;BME280;26987;59.928;30.306;2023-06-14T12:24:13;101798.56;;;23.82;29.23
41254;BME280;26987;59.928;30.306;2023-06-14T12:26:41;101797.72;;;23.81;29.44
41254;BME280;26987;59.928;30.306;2023-06-14T12:29:09;101784.56;;;23.78;29.70
41254;BME280;26987;59.928;30.306;2023-06-14T12:31:38;101795.25;;;23.80;29.10
41254;BME280;26987;59.928;30.306;2023-06-14T12:34:07;101781.84;;;23.73;29.20
41254;BME280;26987;59.928;30.306;2023-06-14T12:36:35;101787.31;;;23.78;29.09
41254;BME280;26987;59.928;30.306;2023-06-14T12:39:09;101767.88;;;23.69;28.59
41254;BME280;26987;59.928;30.306;2023-06-14T12:41:37;101794.44;;;23.85;28.90
41254;BME280;26987;59.928;30.306;2023-06-14T12:44:07;101788.97;;;23.85;28.07
41254;BME280;26987;59.928;30.306;2023-06-14T12:46:35;101793.91;;;23.93;28.22
41254;BME280;26987;59.928;30.306;2023-06-14T12:49:07;101792.53;;;23.96;28.30
41254;BME280;26987;59.928;30.306;2023-06-14T12:51:35;101755.84;;;23.76;27.96
41254;BME280;26987;59.928;30.306;2023-06-14T12:54:03;101785.16;;;23.96;27.54
41254;BME280;26987;59.928;30.306;2023-06-14T12:56:32;101786.78;;;23.97;27.27
41254;BME280;26987;59.928;30.306;2023-06-14T12:59:00;101779.13;;;23.94;27.76